sensor_id;sensor_type;location;lat;lon;timestamp;pressure;altitude;pressure_sealevel;temperature;humidity
77351;BME280;66420;50.246;14.320;2023-03-14T00:01:53;97959.03;;;8.11;91.69
77351;BME280;66420;50.246;14.320;2023-03-14T00:04:37;97960.44;;;8.17;91.88
77351;BME280;66420;50.246;14.320;2023-03-14T00:07:22;97965.28;;;8.12;92.08
77351;BME280;66420;50.246;14.320;2023-03-14T00:10:11;97967.16;;;8.20;90.89
77351;BME280;66420;50.246;14.320;2023-03-14T00:12:57;97960.25;;;8.22;90.82
77351;BME280;66420;50.246;14.320;2023-03-14T00:15:41;97968.28;;;8.19;91.17
77351;BME280;66420;50.246;14.320;2023-03-14T00:18:26;97957.44;;;8.10;91.89
77351;BME280;66420;50.246;14.320;2023-03-14T00:21:10;97941.22;;;8.14;91.54
77351;BME280;66420;50.246;14.320;2023-03-14T00:23:55;97934.38;;;8.08;91.92
77351;BME280;66420;50.246;14.320;2023-03-14T00:26:40;97925.06;;;8.09;91.94
77351;BME280;66420;50.246;14.320;2023-03-14T00:29:24;97909.31;;;7.93;91.92
77351;BME280;66420;50.246;14.320;2023-03-14T00:32:09;97904.78;;;7.97;92.84
77351;BME280;66420;50.246;14.320;2023-03-14T00:34:53;97883.22;;;7.92;92.42
77351;BME280;66420;50.246;14.320;2023-03-14T00:37:38;97845.03;;;8.01;92.59
77351;BME280;66420;50.246;14.320;2023-03-14T00:40:23;97802.88;;;7.98;91.85
77351;BME280;66420;50.246;14.320;2023-03-14T00:43:07;97744.97;;;7.89;92.38
77351;BME280;66420;50.246;14.320;2023-03-14T00:45:52;97803.41;;;8.13;91.50
77351;BME280;66420;50.246;14.320;2023-03-14T00:48:38;97818.28;;;8.15;91.31
77351;BME280;66420;50.246;14.320;2023-03-14T00:51:23;97812.97;;;8.19;90.60
77351;BME280;66420;50.246;14.320;2023-03-14T00:54:07;97819.31;;;8.23;89.86
77351;BME280;66420;50.246;14.320;2023-03-14T00:56:51;97799.56;;;8.26;90.39
77351;BME280;66420;50.246;14.320;2023-03-14T00:59:36;97791.97;;;8.19;90.42
77351;BME280;66420;50.246;14.320;2023-03-14T01:02:21;97758.47;;;8.19;89.60
77351;BME280;66420;50.246;14.320;2023-03-14T01:05:06;97743.13;;;8.14;90.59
77351;BME280;66420;50.246;14.320;2023-03-14T01:07:51;97729.38;;;8.11;90.73
77351;BME280;66420;50.246;14.320;2023-03-14T01:10:40;97716.00;;;8.18;90.08
77351;BME280;66420;50.246;14.320;2023-03-14T01:13:25;97703.72;;;8.12;89.41
77351;BME280;66420;50.246;14.320;2023-03-14T01:16:11;97721.66;;;8.13;89.50
77351;BME280;66420;50.246;14.320;2023-03-14T01:18:56;97725.97;;;8.14;89.81
77351;BME280;66420;50.246;14.320;2023-03-14T01:21:41;97733.22;;;8.10;90.51
77351;BME280;66420;50.246;14.320;2023-03-14T01:24:25;97719.25;;;8.11;89.92
77351;BME280;66420;50.246;14.320;2023-03-14T01:27:10;97723.00;;;8.07;89.72
77351;BME280;66420;50.246;14.320;2023-03-14T01:29:56;97719.22;;;7.99;90.33
77351;BME280;66420;50.246;14.320;2023-03-14T01:32:40;97720.25;;;7.94;90.04
77351;BME280;66420;50.246;14.320;2023-03-14T01:35:25;97730.59;;;8.01;90.28
77351;BME280;66420;50.246;14.320;2023-03-14T01:38:09;97745.13;;;8.05;90.69
77351;BME280;66420;50.246;14.320;2023-03-14T01:40:54;97719.13;;;7.95;91.10
77351;BME280;66420;50.246;14.320;2023-03-14T01:43:39;97707.84;;;7.85;91.17
77351;BME280;66420;50.246;14.320;2023-03-14T01:46:40;97700.06;;;7.95;90.37
77351;BME280;66420;50.246;14.320;2023-03-14T01:49:31;97700.06;;;7.95;90.30
77351;BME280;66420;50.246;14.320;2023-03-14T01:55:09;97713.06;;;7.90;90.96
77351;BME280;66420;50.246;14.320;2023-03-14T01:58:02;97718.66;;;7.93;90.19
77351;BME280;66420;50.246;14.320;2023-03-14T02:00:47;97722.03;;;7.78;91.60
77351;BME280;66420;50.246;14.320;2023-03-14T02:03:37;97744.00;;;7.73;91.30
77351;BME280;66420;50.246;14.320;2023-03-14T02:06:27;97749.91;;;7.75;91.66
77351;BME280;66420;50.246;14.320;2023-03-14T02:09:14;97748.31;;;7.74;92.04
77351;BME280;66420;50.246;14.320;2023-03-14T02:11:59;97738.50;;;7.61;91.97
77351;BME280;66420;50.246;14.320;2023-03-14T02:14:44;97720.09;;;7.58;92.97
77351;BME280;66420;50.246;14.320;2023-03-14T02:17:33;97735.13;;;7.64;92.80
77351;BME280;66420;50.246;14.320;2023-03-14T02:23:15;97755.19;;;7.60;91.94
77351;BME280;66420;50.246;14.320;2023-03-14T02:26:05;97740.56;;;7.64;92.38
77351;BME280;66420;50.246;14.320;2023-03-14T02:28:53;97743.16;;;7.61;92.02
77351;BME280;66420;50.246;14.320;2023-03-14T02:31:38;97742.38;;;7.60;91.90
77351;BME280;66420;50.246;14.320;2023-03-14T02:34:24;97735.13;;;7.64;91.71
77351;BME280;66420;50.246;14.320;2023-03-14T02:37:10;97730.06;;;7.54;91.95
77351;BME280;66420;50.246;14.320;2023-03-14T02:39:55;97730.28;;;7.49;91.45
77351;BME280;66420;50.246;14.320;2023-03-14T02:42:40;97723.84;;;7.33;92.27
77351;BME280;66420;50.246;14.320;2023-03-14T02:45:37;97700.59;;;7.35;91.71
77351;BME280;66420;50.246;14.320;2023-03-14T02:48:28;97694.38;;;7.35;92.11
77351;BME280;66420;50.246;14.320;2023-03-14T02:51:14;97686.41;;;7.30;91.71
77351;BME280;66420;50.246;14.320;2023-03-14T02:54:00;97681.22;;;7.37;91.33
77351;BME280;66420;50.246;14.320;2023-03-14T02:56:45;97672.66;;;7.26;91.33
77351;BME280;66420;50.246;14.320;2023-03-14T02:59:29;97663.72;;;7.26;90.85
77351;BME280;66420;50.246;14.320;2023-03-14T03:02:14;97664.19;;;7.28;91.21
77351;BME280;66420;50.246;14.320;2023-03-14T03:04:59;97665.81;;;7.20;90.76
77351;BME280;66420;50.246;14.320;2023-03-14T03:07:43;97665.91;;;7.11;90.24
77351;BME280;66420;50.246;14.320;2023-03-14T03:10:28;97668.44;;;7.17;90.69
77351;BME280;66420;50.246;14.320;2023-03-14T03:13:14;97669.03;;;7.22;90.17
77351;BME280;66420;50.246;14.320;2023-03-14T03:15:59;97666.19;;;7.19;90.18
77351;BME280;66420;50.246;14.320;2023-03-14T03:18:43;97656.31;;;7.14;90.05
77351;BME280;66420;50.246;14.320;2023-03-14T03:21:28;97661.06;;;6.96;90.05
77351;BME280;66420;50.246;14.320;2023-03-14T03:24:16;97656.09;;;6.98;90.07
77351;BME280;66420;50.246;14.320;2023-03-14T03:27:01;97647.31;;;6.93;89.65
77351;BME280;66420;50.246;14.320;2023-03-14T03:29:46;97632.28;;;6.95;89.71
77351;BME280;66420;50.246;14.320;2023-03-14T03:32:32;97640.16;;;6.88;89.45
77351;BME280;66420;50.246;14.320;2023-03-14T03:35:16;97629.88;;;6.94;89.27
77351;BME280;66420;50.246;14.320;2023-03-14T03:38:01;97628.63;;;6.91;89.32
77351;BME280;66420;50.246;14.320;2023-03-14T03:40:45;97623.72;;;6.85;89.56
77351;BME280;66420;50.246;14.320;2023-03-14T03:43:30;97630.28;;;6.84;89.78
77351;BME280;66420;50.246;14.320;2023-03-14T03:46:15;97628.97;;;6.69;90.28
77351;BME280;66420;50.246;14.320;2023-03-14T03:49:00;97654.19;;;6.49;91.55
77351;BME280;66420;50.246;14.320;2023-03-14T03:51:44;97650.03;;;6.43;92.13
77351;BME280;66420;50.246;14.320;2023-03-14T03:54:29;97648.59;;;6.45;92.34
77351;BME280;66420;50.246;14.320;2023-03-14T03:57:14;97654.00;;;6.54;91.80
77351;BME280;66420;50.246;14.320;2023-03-14T03:59:59;97661.84;;;6.47;91.46
77351;BME280;66420;50.246;14.320;2023-03-14T04:02:44;97679.63;;;6.44;91.23
77351;BME280;66420;50.246;14.320;2023-03-14T04:05:28;97687.91;;;6.48;90.85
77351;BME280;66420;50.246;14.320;2023-03-14T04:08:13;97684.69;;;6.54;90.80
77351;BME280;66420;50.246;14.320;2023-03-14T04:10:59;97682.09;;;6.58;90.83
77351;BME280;66420;50.246;14.320;2023-03-14T04:13:44;97678.09;;;6.55;90.94
77351;BME280;66420;50.246;14.320;2023-03-14T04:16:29;97675.25;;;6.52;90.72
77351;BME280;66420;50.246;14.320;2023-03-14T04:19:15;97666.28;;;6.51;90.80
77351;BME280;66420;50.246;14.320;2023-03-14T04:22:00;97668.78;;;6.36;91.30
77351;BME280;66420;50.246;14.320;2023-03-14T04:24:45;97657.16;;;6.27;91.75
77351;BME280;66420;50.246;14.320;2023-03-14T04:27:29;97657.44;;;6.34;91.63
77351;BME280;66420;50.246;14.320;2023-03-14T04:30:14;97657.97;;;6.27;91.42
77351;BME280;66420;50.246;14.320;2023-03-14T04:32:59;97657.03;;;6.23;91.71
77351;BME280;66420;50.246;14.320;2023-03-14T04:35:44;97654.81;;;6.16;91.94
77351;BME280;66420;50.246;14.320;2023-03-14T04:38:29;97665.84;;;6.11;92.07
77351;BME280;66420;50.246;14.320;2023-03-14T04:41:14;97668.25;;;6.13;92.18
77351;BME280;66420;50.246;14.320;2023-03-14T04:43:59;97660.91;;;6.13;92.18
77351;BME280;66420;50.246;14.320;2023-03-14T04:46:43;97635.94;;;6.20;92.03
77351;BME280;66420;50.246;14.320;2023-03-14T04:49:28;97630.28;;;6.04;92.73
77351;BME280;66420;50.246;14.320;2023-03-14T04:52:12;97644.78;;;6.08;93.01
77351;BME280;66420;50.246;14.320;2023-03-14T04:54:56;97655.78;;;6.12;93.85
77351;BME280;66420;50.246;14.320;2023-03-14T04:57:42;97642.97;;;6.21;93.60
77351;BME280;66420;50.246;14.320;2023-03-14T05:00:26;97634.31;;;6.28;93.52
77351;BME280;66420;50.246;14.320;2023-03-14T05:03:11;97652.06;;;6.54;93.30
77351;BME280;66420;50.246;14.320;2023-03-14T05:05:56;97643.72;;;6.59;93.20
77351;BME280;66420;50.246;14.320;2023-03-14T05:08:41;97657.34;;;6.80;93.22
77351;BME280;66420;50.246;14.320;2023-03-14T05:11:26;97648.66;;;6.87;93.25
77351;BME280;66420;50.246;14.320;2023-03-14T05:14:11;97634.47;;;7.02;92.67
77351;BME280;66420;50.246;14.320;2023-03-14T05:16:55;97616.28;;;7.15;92.51
77351;BME280;66420;50.246;14.320;2023-03-14T05:19:41;97621.78;;;7.27;92.37
77351;BME280;66420;50.246;14.320;2023-03-14T05:22:25;97611.72;;;7.39;92.72
77351;BME280;66420;50.246;14.320;2023-03-14T05:25:10;97624.09;;;7.37;92.41
77351;BME280;66420;50.246;14.320;2023-03-14T05:27:55;97610.94;;;7.39;92.14
77351;BME280;66420;50.246;14.320;2023-03-14T05:30:40;97619.69;;;7.89;90.93
77351;BME280;66420;50.246;14.320;2023-03-14T05:33:25;97614.22;;;7.89;90.51
77351;BME280;66420;50.246;14.320;2023-03-14T05:36:10;97628.41;;;7.83;90.89
77351;BME280;66420;50.246;14.320;2023-03-14T05:38:55;97634.81;;;8.23;88.77
77351;BME280;66420;50.246;14.320;2023-03-14T05:41:40;97630.84;;;8.21;88.87
77351;BME280;66420;50.246;14.320;2023-03-14T05:44:24;97606.78;;;8.23;89.29
77351;BME280;66420;50.246;14.320;2023-03-14T05:47:09;97613.16;;;8.39;87.97
77351;BME280;66420;50.246;14.320;2023-03-14T05:49:54;97614.06;;;8.55;87.58
77351;BME280;66420;50.246;14.320;2023-03-14T05:52:38;97601.97;;;8.80;86.08
77351;BME280;66420;50.246;14.320;2023-03-14T05:55:23;97607.19;;;8.85;85.32
77351;BME280;66420;50.246;14.320;2023-03-14T05:58:08;97612.41;;;8.90;84.32
77351;BME280;66420;50.246;14.320;2023-03-14T06:00:52;97610.41;;;9.15;83.55
77351;BME280;66420;50.246;14.320;2023-03-14T06:03:37;97610.88;;;9.05;83.05
77351;BME280;66420;50.246;14.320;2023-03-14T06:06:22;97615.50;;;9.17;83.03
77351;BME280;66420;50.246;14.320;2023-03-14T06:09:06;97598.59;;;9.11;83.46
77351;BME280;66420;50.246;14.320;2023-03-14T06:11:51;97592.72;;;8.97;83.49
77351;BME280;66420;50.246;14.320;2023-03-14T06:14:36;97595.56;;;9.01;83.38
77351;BME280;66420;50.246;14.320;2023-03-14T06:17:20;97607.03;;;9.06;82.72
77351;BME280;66420;50.246;14.320;2023-03-14T06:20:05;97613.47;;;9.14;81.72
77351;BME280;66420;50.246;14.320;2023-03-14T06:22:50;97614.75;;;9.04;83.24
77351;BME280;66420;50.246;14.320;2023-03-14T06:25:35;97616.53;;;9.12;82.16
77351;BME280;66420;50.246;14.320;2023-03-14T06:28:20;97619.97;;;9.09;83.61
77351;BME280;66420;50.246;14.320;2023-03-14T06:31:04;97633.28;;;8.99;82.72
77351;BME280;66420;50.246;14.320;2023-03-14T06:33:49;97644.44;;;9.06;82.54
77351;BME280;66420;50.246;14.320;2023-03-14T06:36:34;97640.75;;;9.14;81.79
77351;BME280;66420;50.246;14.320;2023-03-14T06:39:19;97662.03;;;9.48;80.29
77351;BME280;66420;50.246;14.320;2023-03-14T06:42:04;97661.53;;;9.58;80.02
77351;BME280;66420;50.246;14.320;2023-03-14T06:44:49;97642.41;;;9.58;79.32
77351;BME280;66420;50.246;14.320;2023-03-14T06:47:34;97650.16;;;9.56;80.29
77351;BME280;66420;50.246;14.320;2023-03-14T06:50:18;97660.72;;;9.58;79.49
77351;BME280;66420;50.246;14.320;2023-03-14T06:53:03;97656.69;;;9.67;79.12
77351;BME280;66420;50.246;14.320;2023-03-14T06:55:47;97662.03;;;9.76;79.28
77351;BME280;66420;50.246;14.320;2023-03-14T06:58:32;97657.47;;;9.80;79.06
77351;BME280;66420;50.246;14.320;2023-03-14T07:01:22;97648.63;;;9.87;79.13
77351;BME280;66420;50.246;14.320;2023-03-14T07:04:09;97645.66;;;9.92;78.67
77351;BME280;66420;50.246;14.320;2023-03-14T07:06:54;97653.34;;;10.02;77.06
77351;BME280;66420;50.246;14.320;2023-03-14T07:09:38;97659.78;;;10.09;77.07
77351;BME280;66420;50.246;14.320;2023-03-14T07:12:23;97656.47;;;10.16;76.49
77351;BME280;66420;50.246;14.320;2023-03-14T07:15:07;97644.47;;;10.36;75.44
77351;BME280;66420;50.246;14.320;2023-03-14T07:17:52;97636.25;;;10.36;75.75
77351;BME280;66420;50.246;14.320;2023-03-14T07:20:37;97655.94;;;10.42;76.25
77351;BME280;66420;50.246;14.320;2023-03-14T07:23:21;97650.72;;;10.52;74.38
77351;BME280;66420;50.246;14.320;2023-03-14T07:26:06;97657.16;;;10.60;73.54
77351;BME280;66420;50.246;14.320;2023-03-14T07:28:51;97660.88;;;10.68;72.09
77351;BME280;66420;50.246;14.320;2023-03-14T07:31:36;97661.47;;;10.77;71.64
77351;BME280;66420;50.246;14.320;2023-03-14T07:34:21;97656.00;;;10.77;72.96
77351;BME280;66420;50.246;14.320;2023-03-14T07:37:05;97661.03;;;10.75;71.88
77351;BME280;66420;50.246;14.320;2023-03-14T07:39:50;97665.16;;;10.68;73.62
77351;BME280;66420;50.246;14.320;2023-03-14T07:42:34;97651.94;;;10.71;73.03
77351;BME280;66420;50.246;14.320;2023-03-14T07:45:19;97665.16;;;10.68;72.65
77351;BME280;66420;50.246;14.320;2023-03-14T07:48:03;97667.22;;;10.72;71.97
77351;BME280;66420;50.246;14.320;2023-03-14T07:50:49;97673.19;;;10.77;72.22
77351;BME280;66420;50.246;14.320;2023-03-14T07:53:34;97680.25;;;10.78;72.38
77351;BME280;66420;50.246;14.320;2023-03-14T07:56:19;97671.25;;;10.78;72.14
77351;BME280;66420;50.246;14.320;2023-03-14T07:59:03;97671.16;;;10.74;72.93
77351;BME280;66420;50.246;14.320;2023-03-14T08:01:48;97673.97;;;10.78;73.44
77351;BME280;66420;50.246;14.320;2023-03-14T08:04:32;97679.03;;;10.76;72.28
77351;BME280;66420;50.246;14.320;2023-03-14T08:07:17;97677.88;;;10.77;71.98
77351;BME280;66420;50.246;14.320;2023-03-14T08:10:03;97685.72;;;10.78;71.63
77351;BME280;66420;50.246;14.320;2023-03-14T08:12:49;97673.72;;;10.83;70.86
77351;BME280;66420;50.246;14.320;2023-03-14T08:15:34;97678.13;;;10.87;72.40
77351;BME280;66420;50.246;14.320;2023-03-14T08:18:19;97666.38;;;10.87;71.41
77351;BME280;66420;50.246;14.320;2023-03-14T08:21:04;97667.25;;;10.91;71.47
77351;BME280;66420;50.246;14.320;2023-03-14T08:23:49;97664.94;;;10.93;71.05
77351;BME280;66420;50.246;14.320;2023-03-14T08:26:34;97661.59;;;10.99;70.17
77351;BME280;66420;50.246;14.320;2023-03-14T08:29:18;97663.25;;;11.04;69.68
77351;BME280;66420;50.246;14.320;2023-03-14T08:32:04;97656.25;;;11.06;68.90
77351;BME280;66420;50.246;14.320;2023-03-14T08:34:49;97666.59;;;11.13;69.49
77351;BME280;66420;50.246;14.320;2023-03-14T08:37:34;97660.31;;;11.13;68.59
77351;BME280;66420;50.246;14.320;2023-03-14T08:40:19;97670.88;;;11.14;69.41
77351;BME280;66420;50.246;14.320;2023-03-14T08:43:04;97669.47;;;11.20;69.18
77351;BME280;66420;50.246;14.320;2023-03-14T08:45:49;97671.84;;;11.22;68.33
77351;BME280;66420;50.246;14.320;2023-03-14T08:48:34;97675.13;;;11.27;69.45
77351;BME280;66420;50.246;14.320;2023-03-14T08:51:19;97671.13;;;11.25;68.43
77351;BME280;66420;50.246;14.320;2023-03-14T08:54:04;97668.84;;;11.27;67.09
77351;BME280;66420;50.246;14.320;2023-03-14T08:56:49;97674.66;;;11.25;67.96
77351;BME280;66420;50.246;14.320;2023-03-14T08:59:34;97666.16;;;11.30;67.26
77351;BME280;66420;50.246;14.320;2023-03-14T09:02:19;97677.53;;;11.32;67.88
77351;BME280;66420;50.246;14.320;2023-03-14T09:05:05;97675.47;;;11.26;66.45
77351;BME280;66420;50.246;14.320;2023-03-14T09:07:50;97676.41;;;11.33;66.70
77351;BME280;66420;50.246;14.320;2023-03-14T09:10:35;97672.50;;;11.34;67.65
77351;BME280;66420;50.246;14.320;2023-03-14T09:13:19;97672.50;;;11.34;66.01
77351;BME280;66420;50.246;14.320;2023-03-14T09:16:04;97680.00;;;11.37;66.25
77351;BME280;66420;50.246;14.320;2023-03-14T09:18:49;97682.25;;;11.51;66.66
77351;BME280;66420;50.246;14.320;2023-03-14T09:21:34;97690.63;;;11.58;66.45
77351;BME280;66420;50.246;14.320;2023-03-14T09:24:18;97686.81;;;11.63;66.02
77351;BME280;66420;50.246;14.320;2023-03-14T09:27:03;97699.03;;;11.69;65.68
77351;BME280;66420;50.246;14.320;2023-03-14T09:29:47;97688.69;;;11.78;65.50
77351;BME280;66420;50.246;14.320;2023-03-14T09:32:32;97692.06;;;11.90;65.10
77351;BME280;66420;50.246;14.320;2023-03-14T09:35:17;97694.59;;;11.99;64.71
77351;BME280;66420;50.246;14.320;2023-03-14T09:38:02;97697.03;;;12.04;64.63
77351;BME280;66420;50.246;14.320;2023-03-14T09:40:48;97693.91;;;12.06;64.26
77351;BME280;66420;50.246;14.320;2023-03-14T09:43:34;97700.66;;;11.89;62.62
77351;BME280;66420;50.246;14.320;2023-03-14T09:46:20;97698.06;;;11.77;63.56
77351;BME280;66420;50.246;14.320;2023-03-14T09:49:11;97684.47;;;11.65;63.62
77351;BME280;66420;50.246;14.320;2023-03-14T09:52:00;97681.91;;;11.72;63.89
77351;BME280;66420;50.246;14.320;2023-03-14T09:55:01;97679.72;;;11.62;63.39
77351;BME280;66420;50.246;14.320;2023-03-14T09:57:48;97678.59;;;11.63;63.99
77351;BME280;66420;50.246;14.320;2023-03-14T10:00:35;97675.84;;;11.63;64.54
77351;BME280;66420;50.246;14.320;2023-03-14T10:03:26;97680.47;;;11.59;63.20
77351;BME280;66420;50.246;14.320;2023-03-14T10:06:14;97678.88;;;11.57;64.09
77351;BME280;66420;50.246;14.320;2023-03-14T10:08:59;97688.41;;;11.64;63.86
77351;BME280;66420;50.246;14.320;2023-03-14T10:11:45;97677.44;;;11.64;64.26
77351;BME280;66420;50.246;14.320;2023-03-14T10:14:33;97686.50;;;11.68;63.89
77351;BME280;66420;50.246;14.320;2023-03-14T10:17:19;97686.06;;;11.66;63.21
77351;BME280;66420;50.246;14.320;2023-03-14T10:20:04;97675.63;;;11.71;62.75
77351;BME280;66420;50.246;14.320;2023-03-14T10:22:50;97675.47;;;11.64;63.03
77351;BME280;66420;50.246;14.320;2023-03-14T10:25:37;97666.88;;;11.66;64.60
77351;BME280;66420;50.246;14.320;2023-03-14T10:28:28;97670.06;;;11.68;64.56
77351;BME280;66420;50.246;14.320;2023-03-14T10:31:15;97661.06;;;11.67;63.33
77351;BME280;66420;50.246;14.320;2023-03-14T10:34:02;97671.16;;;11.63;62.87
77351;BME280;66420;50.246;14.320;2023-03-14T10:36:55;97670.34;;;11.63;63.47
77351;BME280;66420;50.246;14.320;2023-03-14T10:39:41;97658.59;;;11.62;63.22
77351;BME280;66420;50.246;14.320;2023-03-14T10:42:30;97668.31;;;11.60;63.07
77351;BME280;66420;50.246;14.320;2023-03-14T10:45:37;97671.50;;;11.62;63.05
77351;BME280;66420;50.246;14.320;2023-03-14T10:48:35;97666.31;;;11.56;62.69
77351;BME280;66420;50.246;14.320;2023-03-14T10:51:29;97672.94;;;11.55;61.97
77351;BME280;66420;50.246;14.320;2023-03-14T10:54:19;97672.53;;;11.53;62.10
77351;BME280;66420;50.246;14.320;2023-03-14T10:57:05;97676.41;;;11.52;62.97
77351;BME280;66420;50.246;14.320;2023-03-14T10:59:50;97673.38;;;11.57;62.99
77351;BME280;66420;50.246;14.320;2023-03-14T11:02:56;97675.25;;;11.53;63.48
77351;BME280;66420;50.246;14.320;2023-03-14T11:05:57;97676.41;;;11.52;62.91
77351;BME280;66420;50.246;14.320;2023-03-14T11:08:57;97673.38;;;11.57;62.12
77351;BME280;66420;50.246;14.320;2023-03-14T11:11:49;97672.16;;;11.55;62.12
77351;BME280;66420;50.246;14.320;2023-03-14T11:14:42;97672.59;;;11.57;63.35
77351;BME280;66420;50.246;14.320;2023-03-14T11:17:50;97669.50;;;11.59;61.74
77351;BME280;66420;50.246;14.320;2023-03-14T11:24:25;97669.91;;;11.61;62.07
77351;BME280;66420;50.246;14.320;2023-03-14T11:30:35;97667.34;;;11.68;61.96
77351;BME280;66420;50.246;14.320;2023-03-14T11:33:35;97677.44;;;11.64;61.76
77351;BME280;66420;50.246;14.320;2023-03-14T11:36:31;97676.63;;;11.63;61.61
77351;BME280;66420;50.246;14.320;2023-03-14T11:39:20;97666.88;;;11.66;63.11
77351;BME280;66420;50.246;14.320;2023-03-14T11:42:11;97661.84;;;11.68;62.47
77351;BME280;66420;50.246;14.320;2023-03-14T11:44:57;97661.13;;;11.71;62.03
77351;BME280;66420;50.246;14.320;2023-03-14T11:47:46;97665.09;;;11.73;61.83
77351;BME280;66420;50.246;14.320;2023-03-14T11:50:36;97664.91;;;11.82;61.15
77351;BME280;66420;50.246;14.320;2023-03-14T11:56:25;97658.69;;;11.85;62.11
77351;BME280;66420;50.246;14.320;2023-03-14T12:02:13;97657.59;;;11.89;61.68
77351;BME280;66420;50.246;14.320;2023-03-14T12:10:43;97652.94;;;12.13;60.04
77351;BME280;66420;50.246;14.320;2023-03-14T12:13:32;97655.72;;;12.16;59.95
77351;BME280;66420;50.246;14.320;2023-03-14T12:16:30;97644.91;;;12.23;60.39
77351;BME280;66420;50.246;14.320;2023-03-14T12:22:17;97634.94;;;12.15;60.61
77351;BME280;66420;50.246;14.320;2023-03-14T12:25:15;97635.63;;;12.09;59.98
77351;BME280;66420;50.246;14.320;2023-03-14T12:28:18;97637.22;;;12.10;59.43
77351;BME280;66420;50.246;14.320;2023-03-14T12:36:56;97618.78;;;12.10;59.85
77351;BME280;66420;50.246;14.320;2023-03-14T12:42:58;97599.28;;;12.15;58.97
77351;BME280;66420;50.246;14.320;2023-03-14T12:51:45;97591.09;;;12.94;56.94
77351;BME280;66420;50.246;14.320;2023-03-14T12:54:53;97582.56;;;13.66;54.56
77351;BME280;66420;50.246;14.320;2023-03-14T12:57:45;97575.53;;;14.12;54.15
77351;BME280;66420;50.246;14.320;2023-03-14T13:00:34;97571.69;;;14.68;52.76
77351;BME280;66420;50.246;14.320;2023-03-14T13:03:22;97574.25;;;15.08;51.66
77351;BME280;66420;50.246;14.320;2023-03-14T13:06:45;97571.50;;;15.08;50.69
77351;BME280;66420;50.246;14.320;2023-03-14T13:12:23;97561.94;;;15.78;48.32
77351;BME280;66420;50.246;14.320;2023-03-14T13:18:41;97550.78;;;15.39;48.85
77351;BME280;66420;50.246;14.320;2023-03-14T13:21:27;97564.75;;;14.34;51.38
77351;BME280;66420;50.246;14.320;2023-03-14T13:24:24;97569.34;;;14.70;51.11
77351;BME280;66420;50.246;14.320;2023-03-14T13:27:17;97567.19;;;14.46;51.99
77351;BME280;66420;50.246;14.320;2023-03-14T13:30:17;97581.53;;;14.73;51.83
77351;BME280;66420;50.246;14.320;2023-03-14T13:33:04;97572.78;;;14.12;52.26
77351;BME280;66420;50.246;14.320;2023-03-14T13:35:58;97579.72;;;13.96;53.17
77351;BME280;66420;50.246;14.320;2023-03-14T13:38:43;97574.59;;;13.54;54.88
77351;BME280;66420;50.246;14.320;2023-03-14T13:41:28;97569.53;;;13.22;55.60
77351;BME280;66420;50.246;14.320;2023-03-14T13:44:30;97567.16;;;13.24;55.63
77351;BME280;66420;50.246;14.320;2023-03-14T13:47:18;97580.00;;;13.13;55.38
77351;BME280;66420;50.246;14.320;2023-03-14T13:50:03;97574.91;;;13.15;55.14
77351;BME280;66420;50.246;14.320;2023-03-14T13:52:55;97570.78;;;13.02;55.44
77351;BME280;66420;50.246;14.320;2023-03-14T13:55:42;97578.94;;;12.95;55.71
77351;BME280;66420;50.246;14.320;2023-03-14T13:58:30;97578.22;;;12.72;57.41
77351;BME280;66420;50.246;14.320;2023-03-14T14:01:33;97576.69;;;12.74;58.47
77351;BME280;66420;50.246;14.320;2023-03-14T14:04:21;97575.41;;;12.65;57.01
77351;BME280;66420;50.246;14.320;2023-03-14T14:07:10;97570.44;;;12.74;57.44
77351;BME280;66420;50.246;14.320;2023-03-14T14:09:58;97573.31;;;12.84;57.19
77351;BME280;66420;50.246;14.320;2023-03-14T14:12:49;97582.50;;;12.96;56.86
77351;BME280;66420;50.246;14.320;2023-03-14T14:15:41;97576.81;;;12.81;56.35
77351;BME280;66420;50.246;14.320;2023-03-14T14:18:28;97580.69;;;12.80;56.91
77351;BME280;66420;50.246;14.320;2023-03-14T14:21:14;97587.22;;;12.99;57.09
77351;BME280;66420;50.246;14.320;2023-03-14T14:23:59;97591.78;;;13.14;58.39
77351;BME280;66420;50.246;14.320;2023-03-14T14:26:51;97588.09;;;13.32;58.03
77351;BME280;66420;50.246;14.320;2023-03-14T14:29:37;97585.34;;;13.06;58.34
77351;BME280;66420;50.246;14.320;2023-03-14T14:32:22;97583.81;;;13.39;58.88
77351;BME280;66420;50.246;14.320;2023-03-14T14:35:10;97566.84;;;13.66;56.99
77351;BME280;66420;50.246;14.320;2023-03-14T14:37:55;97566.28;;;13.84;57.36
77351;BME280;66420;50.246;14.320;2023-03-14T14:40:52;97575.72;;;13.90;57.37
77351;BME280;66420;50.246;14.320;2023-03-14T14:43:39;97573.72;;;14.31;57.15
77351;BME280;66420;50.246;14.320;2023-03-14T14:46:27;97574.25;;;13.99;55.79
77351;BME280;66420;50.246;14.320;2023-03-14T14:51:44;97567.84;;;13.48;58.51
77351;BME280;66420;50.246;14.320;2023-03-14T14:57:12;97564.75;;;13.93;57.59
77351;BME280;66420;50.246;14.320;2023-03-14T15:00:03;97559.88;;;13.06;59.32
77351;BME280;66420;50.246;14.320;2023-03-14T15:02:52;97563.56;;;12.87;60.22
77351;BME280;66420;50.246;14.320;2023-03-14T15:05:39;97560.59;;;12.73;60.40
77351;BME280;66420;50.246;14.320;2023-03-14T15:08:25;97563.66;;;12.68;61.63
77351;BME280;66420;50.246;14.320;2023-03-14T15:11:17;97562.72;;;12.57;63.39
77351;BME280;66420;50.246;14.320;2023-03-14T15:14:02;97560.72;;;12.54;63.47
77351;BME280;66420;50.246;14.320;2023-03-14T15:16:48;97581.56;;;12.32;63.23
77351;BME280;66420;50.246;14.320;2023-03-14T15:19:32;97582.47;;;12.17;64.50
77351;BME280;66420;50.246;14.320;2023-03-14T15:22:17;97598.09;;;12.13;66.81
77351;BME280;66420;50.246;14.320;2023-03-14T15:25:02;97582.88;;;12.68;67.57
77351;BME280;66420;50.246;14.320;2023-03-14T15:27:46;97582.41;;;13.18;66.68
77351;BME280;66420;50.246;14.320;2023-03-14T15:30:31;97584.69;;;12.83;65.01
77351;BME280;66420;50.246;14.320;2023-03-14T15:33:16;97581.38;;;12.21;67.43